UAE603 OPKC-OMDB
Flight info
| Callsign | UAE603 |
|---|---|
| Flight time | 1h 30m |
| Altitude | 32000 |
| Route | MELOM1G MELOM A454 PASOV B540 MIVEK P574 IMPED IMPED3C |
| Aircraft | B77W/H-SDE1E2E3FGHIJ2J3J4J5M1RWXY/LB1D1 |
Departure
| Time | 2026-05-08 13:40 |
|---|---|
| Airport | Jinnah International Airport (OPKC) |
Arrival
| Time | 2026-05-08 15:11 |
|---|---|
| Airport | Dubai International Airport (OMDB) |
| Time | Latitude | Longitude | Altitude | Speed | Heading |
|---|---|---|---|---|---|
| 2026-05-08 13:21 | 24.90301 | 67.16833 | 106 ft | 0 kts | 125° |
| 2026-05-08 13:30 | 24.90304 | 67.16828 | 106 ft | 4 kts | 125° |
| 2026-05-08 13:31 | 24.90314 | 67.16812 | 106 ft | 4 kts | 122° |
| 2026-05-08 13:31 | 24.90329 | 67.16787 | 105 ft | 4 kts | 119° |
| 2026-05-08 13:31 | 24.90345 | 67.16752 | 105 ft | 4 kts | 114° |
| 2026-05-08 13:31 | 24.90352 | 67.16733 | 103 ft | 4 kts | 110° |
| 2026-05-08 13:32 | 24.90360 | 67.16705 | 106 ft | 4 kts | 96° |
| 2026-05-08 13:32 | 24.90360 | 67.16684 | 105 ft | 0 kts | 75° |
| 2026-05-08 13:36 | 24.90366 | 67.16711 | 106 ft | 0 kts | 75° |
| 2026-05-08 13:36 | 24.90366 | 67.16712 | 106 ft | 2 kts | 75° |
| 2026-05-08 13:37 | 24.90379 | 67.16765 | 107 ft | 10 kts | 75° |
| 2026-05-08 13:37 | 24.90406 | 67.16875 | 106 ft | 20 kts | 74° |
| 2026-05-08 13:37 | 24.90438 | 67.17001 | 107 ft | 12 kts | 75° |
| 2026-05-08 13:37 | 24.90497 | 67.17041 | 107 ft | 12 kts | 348° |
| 2026-05-08 13:38 | 24.90575 | 67.17015 | 107 ft | 12 kts | 343° |
| 2026-05-08 13:38 | 24.90619 | 67.17002 | 108 ft | 0 kts | 346° |
| 2026-05-08 13:39 | 24.90641 | 67.16996 | 109 ft | 7 kts | 346° |
| 2026-05-08 13:39 | 24.90687 | 67.16983 | 109 ft | 7 kts | 345° |
| 2026-05-08 13:39 | 24.90723 | 67.16957 | 110 ft | 7 kts | 302° |
| 2026-05-08 13:39 | 24.90719 | 67.16869 | 110 ft | 39 kts | 258° |
| 2026-05-08 13:40 | 24.90620 | 67.16494 | 108 ft | 115 kts | 256° |
| 2026-05-08 13:40 | 24.90440 | 67.15781 | 110 ft | 186 kts | 251° |
| 2026-05-08 13:40 | 24.90091 | 67.14436 | 799 ft | 223 kts | 250° |
| 2026-05-08 13:40 | 24.89635 | 67.12837 | 2301 ft | 213 kts | 249° |
| 2026-05-08 13:41 | 24.88910 | 67.11424 | 2822 ft | 223 kts | 223° |
| 2026-05-08 13:41 | 24.87629 | 67.10302 | 3042 ft | 247 kts | 218° |
| 2026-05-08 13:41 | 24.86263 | 67.09029 | 3472 ft | 264 kts | 222° |
| 2026-05-08 13:41 | 24.84896 | 67.07621 | 4132 ft | 272 kts | 224° |
| 2026-05-08 13:42 | 24.83536 | 67.06123 | 4773 ft | 281 kts | 225° |
| 2026-05-08 13:42 | 24.82174 | 67.04562 | 5513 ft | 284 kts | 226° |
| 2026-05-08 13:42 | 24.80799 | 67.02962 | 6230 ft | 290 kts | 227° |
| 2026-05-08 13:42 | 24.79407 | 67.01334 | 6967 ft | 291 kts | 228° |
| 2026-05-08 13:43 | 24.78312 | 66.99489 | 7571 ft | 293 kts | 253° |
| 2026-05-08 13:43 | 24.78119 | 66.97291 | 8235 ft | 292 kts | 276° |
| 2026-05-08 13:43 | 24.78361 | 66.95021 | 8912 ft | 297 kts | 278° |
| 2026-05-08 13:43 | 24.78616 | 66.92763 | 9663 ft | 300 kts | 278° |
| 2026-05-08 13:44 | 24.78873 | 66.90489 | 10236 ft | 309 kts | 278° |
| 2026-05-08 13:44 | 24.79144 | 66.88046 | 10435 ft | 334 kts | 278° |
| 2026-05-08 13:44 | 24.79429 | 66.85414 | 10612 ft | 359 kts | 279° |
| 2026-05-08 13:44 | 24.79735 | 66.82602 | 10927 ft | 374 kts | 279° |
| 2026-05-08 13:45 | 24.80491 | 66.79857 | 11274 ft | 381 kts | 301° |
| 2026-05-08 13:45 | 24.82140 | 66.77598 | 11948 ft | 378 kts | 318° |
| 2026-05-08 13:45 | 24.84086 | 66.75602 | 12703 ft | 384 kts | 319° |
| 2026-05-08 13:45 | 24.85863 | 66.73424 | 13398 ft | 389 kts | 303° |
| 2026-05-08 13:46 | 24.86794 | 66.70579 | 14046 ft | 403 kts | 280° |
| 2026-05-08 13:46 | 24.86819 | 66.67486 | 14865 ft | 405 kts | 268° |
| 2026-05-08 13:46 | 24.86605 | 66.64372 | 15568 ft | 411 kts | 268° |
| 2026-05-08 13:46 | 24.86370 | 66.61215 | 16317 ft | 415 kts | 267° |
| 2026-05-08 13:47 | 24.86126 | 66.58036 | 17083 ft | 419 kts | 267° |
| 2026-05-08 13:47 | 24.85880 | 66.54826 | 17820 ft | 423 kts | 267° |
| 2026-05-08 13:47 | 24.85635 | 66.51572 | 18476 ft | 428 kts | 267° |
| 2026-05-08 13:47 | 24.85392 | 66.48300 | 19148 ft | 431 kts | 268° |
| 2026-05-08 13:48 | 24.85152 | 66.45007 | 19854 ft | 433 kts | 268° |
| 2026-05-08 13:48 | 24.84913 | 66.41695 | 20545 ft | 435 kts | 268° |
| 2026-05-08 13:48 | 24.84674 | 66.38370 | 21214 ft | 438 kts | 268° |
| 2026-05-08 13:48 | 24.84433 | 66.35000 | 21865 ft | 441 kts | 268° |
| 2026-05-08 13:49 | 24.84190 | 66.31616 | 22506 ft | 445 kts | 268° |
| 2026-05-08 13:49 | 24.83945 | 66.28210 | 23136 ft | 448 kts | 268° |
| 2026-05-08 13:49 | 24.83700 | 66.24814 | 23689 ft | 450 kts | 268° |
| 2026-05-08 13:49 | 24.83450 | 66.21359 | 24182 ft | 454 kts | 268° |
| 2026-05-08 13:50 | 24.83198 | 66.17885 | 24680 ft | 456 kts | 268° |
| 2026-05-08 13:50 | 24.82947 | 66.14442 | 25182 ft | 459 kts | 268° |
| 2026-05-08 13:50 | 24.82689 | 66.10921 | 25685 ft | 461 kts | 268° |
| 2026-05-08 13:50 | 24.82430 | 66.07390 | 26178 ft | 464 kts | 268° |
| 2026-05-08 13:51 | 24.82168 | 66.03840 | 26648 ft | 466 kts | 268° |
| 2026-05-08 13:51 | 24.81905 | 66.00271 | 27119 ft | 469 kts | 268° |
| 2026-05-08 13:51 | 24.81640 | 65.96697 | 27568 ft | 471 kts | 268° |
| 2026-05-08 13:51 | 24.81371 | 65.93078 | 28020 ft | 473 kts | 268° |
| 2026-05-08 13:52 | 24.81100 | 65.89453 | 28494 ft | 475 kts | 268° |
| 2026-05-08 13:52 | 24.80828 | 65.85823 | 29002 ft | 476 kts | 268° |
| 2026-05-08 13:52 | 24.80557 | 65.82219 | 29625 ft | 474 kts | 268° |
| 2026-05-08 13:52 | 24.80283 | 65.78599 | 30276 ft | 469 kts | 268° |
| 2026-05-08 13:53 | 24.80018 | 65.75120 | 30904 ft | 465 kts | 268° |
| 2026-05-08 13:53 | 24.79749 | 65.71582 | 31504 ft | 462 kts | 268° |
| 2026-05-08 13:53 | 24.79479 | 65.68027 | 31779 ft | 466 kts | 268° |
| 2026-05-08 13:53 | 24.79210 | 65.64481 | 31755 ft | 466 kts | 268° |
| 2026-05-08 13:54 | 24.78670 | 65.57431 | 31754 ft | 461 kts | 268° |
| 2026-05-08 13:54 | 24.78128 | 65.50400 | 31764 ft | 461 kts | 268° |
| 2026-05-08 13:55 | 24.77583 | 65.43374 | 31762 ft | 461 kts | 268° |
| 2026-05-08 13:56 | 24.76757 | 65.32803 | 31763 ft | 462 kts | 268° |
| 2026-05-08 13:56 | 24.76201 | 65.25752 | 31754 ft | 463 kts | 268° |
| 2026-05-08 13:57 | 24.75641 | 65.18686 | 31758 ft | 463 kts | 268° |
| 2026-05-08 13:57 | 24.75078 | 65.11626 | 31756 ft | 463 kts | 268° |
| 2026-05-08 13:58 | 24.74515 | 65.04606 | 31753 ft | 463 kts | 268° |
| 2026-05-08 13:58 | 24.73944 | 64.97532 | 31751 ft | 463 kts | 267° |
| 2026-05-08 13:59 | 24.73371 | 64.90468 | 31756 ft | 463 kts | 267° |
| 2026-05-08 13:59 | 24.72794 | 64.83405 | 31754 ft | 463 kts | 267° |
| 2026-05-08 14:00 | 24.72219 | 64.76402 | 31757 ft | 462 kts | 267° |
| 2026-05-08 14:00 | 24.71637 | 64.69355 | 31754 ft | 462 kts | 267° |
| 2026-05-08 14:01 | 24.71053 | 64.62318 | 31756 ft | 462 kts | 267° |
| 2026-05-08 14:01 | 24.70464 | 64.55273 | 31754 ft | 462 kts | 267° |
| 2026-05-08 14:02 | 24.69873 | 64.48240 | 31749 ft | 462 kts | 267° |
| 2026-05-08 14:02 | 24.69278 | 64.41189 | 31748 ft | 462 kts | 267° |
| 2026-05-08 14:03 | 24.68680 | 64.34153 | 31742 ft | 463 kts | 266° |
| 2026-05-08 14:03 | 24.68078 | 64.27099 | 31746 ft | 463 kts | 266° |
| 2026-05-08 14:04 | 24.67471 | 64.20039 | 31745 ft | 463 kts | 266° |
| 2026-05-08 14:04 | 24.66865 | 64.13028 | 31747 ft | 464 kts | 266° |
| 2026-05-08 14:05 | 24.66252 | 64.05974 | 31743 ft | 464 kts | 266° |
| 2026-05-08 14:05 | 24.65599 | 63.98749 | 31750 ft | 484 kts | 266° |
| 2026-05-08 14:06 | 24.64921 | 63.91267 | 31754 ft | 499 kts | 266° |
| 2026-05-08 14:06 | 24.64236 | 63.83591 | 31741 ft | 509 kts | 266° |
| 2026-05-08 14:07 | 24.63547 | 63.75834 | 31734 ft | 509 kts | 266° |
| 2026-05-08 14:07 | 24.62857 | 63.68090 | 31725 ft | 509 kts | 266° |
| 2026-05-08 14:08 | 24.62163 | 63.60356 | 31730 ft | 508 kts | 266° |
| 2026-05-08 14:08 | 24.61470 | 63.52667 | 31731 ft | 508 kts | 265° |
| 2026-05-08 14:09 | 24.60768 | 63.44936 | 31728 ft | 509 kts | 265° |
| 2026-05-08 14:09 | 24.60062 | 63.37203 | 31722 ft | 509 kts | 265° |
| 2026-05-08 14:10 | 24.59352 | 63.29468 | 31724 ft | 509 kts | 265° |
| 2026-05-08 14:10 | 24.58638 | 63.21727 | 31724 ft | 509 kts | 265° |
| 2026-05-08 14:11 | 24.57920 | 63.13998 | 31727 ft | 509 kts | 265° |
| 2026-05-08 14:11 | 24.57197 | 63.06249 | 31720 ft | 510 kts | 265° |
| 2026-05-08 14:12 | 24.56468 | 62.98488 | 31723 ft | 510 kts | 265° |
| 2026-05-08 14:12 | 24.55736 | 62.90732 | 31727 ft | 511 kts | 265° |
| 2026-05-08 14:13 | 24.55000 | 62.82976 | 31733 ft | 510 kts | 265° |
| 2026-05-08 14:13 | 24.54261 | 62.75230 | 31723 ft | 509 kts | 265° |
| 2026-05-08 14:14 | 24.53518 | 62.67497 | 31720 ft | 509 kts | 265° |
| 2026-05-08 14:14 | 24.52899 | 62.61080 | 31726 ft | 508 kts | 265° |
| 2026-05-08 14:15 | 24.52152 | 62.53365 | 31722 ft | 508 kts | 265° |
| 2026-05-08 14:15 | 24.51276 | 62.44376 | 31722 ft | 509 kts | 264° |
| 2026-05-08 14:16 | 24.50641 | 62.37899 | 31723 ft | 510 kts | 264° |
| 2026-05-08 14:16 | 24.49878 | 62.30151 | 31717 ft | 510 kts | 264° |
| 2026-05-08 14:17 | 24.49111 | 62.22407 | 31711 ft | 511 kts | 264° |
| 2026-05-08 14:17 | 24.48339 | 62.14649 | 31715 ft | 512 kts | 264° |
| 2026-05-08 14:18 | 24.47562 | 62.06880 | 31720 ft | 512 kts | 264° |
| 2026-05-08 14:18 | 24.46780 | 61.99110 | 31723 ft | 512 kts | 264° |
| 2026-05-08 14:19 | 24.45994 | 61.91329 | 31719 ft | 512 kts | 264° |
| 2026-05-08 14:19 | 24.45203 | 61.83552 | 31720 ft | 513 kts | 264° |
| 2026-05-08 14:20 | 24.44415 | 61.75832 | 31722 ft | 513 kts | 264° |
| 2026-05-08 14:20 | 24.43616 | 61.68055 | 31720 ft | 513 kts | 264° |
| 2026-05-08 14:21 | 24.42814 | 61.60281 | 31721 ft | 513 kts | 264° |
| 2026-05-08 14:21 | 24.42009 | 61.52512 | 31715 ft | 512 kts | 264° |
| 2026-05-08 14:22 | 24.41199 | 61.44739 | 31717 ft | 512 kts | 264° |
| 2026-05-08 14:22 | 24.40386 | 61.36974 | 31715 ft | 512 kts | 264° |
| 2026-05-08 14:23 | 24.39255 | 61.29258 | 31715 ft | 512 kts | 257° |
| 2026-05-08 14:23 | 24.37636 | 61.21641 | 31718 ft | 512 kts | 257° |
| 2026-05-08 14:24 | 24.36005 | 61.14029 | 31720 ft | 512 kts | 257° |
| 2026-05-08 14:24 | 24.34397 | 61.06401 | 31720 ft | 512 kts | 257° |
| 2026-05-08 14:25 | 24.32804 | 60.98783 | 31711 ft | 512 kts | 257° |
| 2026-05-08 14:25 | 24.31210 | 60.91169 | 31716 ft | 512 kts | 257° |
| 2026-05-08 14:26 | 24.29609 | 60.83550 | 31716 ft | 512 kts | 257° |
| 2026-05-08 14:26 | 24.28006 | 60.75948 | 31715 ft | 512 kts | 257° |
| 2026-05-08 14:27 | 24.26407 | 60.68383 | 31726 ft | 512 kts | 257° |
| 2026-05-08 14:27 | 24.24784 | 60.60730 | 31715 ft | 512 kts | 257° |
| 2026-05-08 14:28 | 24.23171 | 60.53140 | 31720 ft | 512 kts | 257° |
| 2026-05-08 14:28 | 24.21554 | 60.45549 | 31723 ft | 512 kts | 257° |
| 2026-05-08 14:29 | 24.19943 | 60.38008 | 31716 ft | 511 kts | 257° |
| 2026-05-08 14:29 | 24.18308 | 60.30373 | 31724 ft | 511 kts | 257° |
| 2026-05-08 14:30 | 24.16692 | 60.22845 | 31718 ft | 511 kts | 257° |
| 2026-05-08 14:30 | 24.15069 | 60.15295 | 31719 ft | 511 kts | 257° |
| 2026-05-08 14:31 | 24.14154 | 60.07592 | 31722 ft | 511 kts | 268° |
| 2026-05-08 14:31 | 24.14058 | 59.99820 | 31704 ft | 511 kts | 269° |
| 2026-05-08 14:32 | 24.13883 | 59.88150 | 31718 ft | 511 kts | 269° |
| 2026-05-08 14:32 | 24.13722 | 59.80368 | 31709 ft | 511 kts | 268° |
| 2026-05-08 14:33 | 24.13549 | 59.72594 | 31710 ft | 511 kts | 268° |
| 2026-05-08 14:33 | 24.13373 | 59.64817 | 31712 ft | 511 kts | 268° |
| 2026-05-08 14:34 | 24.13196 | 59.57042 | 31718 ft | 511 kts | 268° |
| 2026-05-08 14:34 | 24.13015 | 59.49271 | 31711 ft | 510 kts | 268° |
| 2026-05-08 14:35 | 24.12831 | 59.41517 | 31716 ft | 510 kts | 268° |
| 2026-05-08 14:35 | 24.12642 | 59.33760 | 31714 ft | 509 kts | 268° |
| 2026-05-08 14:36 | 24.12450 | 59.26014 | 31713 ft | 509 kts | 268° |
| 2026-05-08 14:36 | 24.12256 | 59.18321 | 31711 ft | 508 kts | 268° |
| 2026-05-08 14:37 | 24.12056 | 59.10585 | 31710 ft | 508 kts | 268° |
| 2026-05-08 14:37 | 24.11853 | 59.02848 | 31719 ft | 508 kts | 268° |
| 2026-05-08 14:38 | 24.11645 | 58.95111 | 31717 ft | 508 kts | 268° |
| 2026-05-08 14:38 | 24.11434 | 58.87384 | 31711 ft | 508 kts | 268° |
| 2026-05-08 14:39 | 24.11219 | 58.79647 | 31712 ft | 508 kts | 268° |
| 2026-05-08 14:39 | 24.11001 | 58.71921 | 31712 ft | 508 kts | 268° |
| 2026-05-08 14:40 | 24.10791 | 58.64197 | 31708 ft | 508 kts | 269° |
| 2026-05-08 14:40 | 24.11482 | 58.56501 | 31715 ft | 509 kts | 280° |
| 2026-05-08 14:41 | 24.13345 | 58.49024 | 31713 ft | 510 kts | 288° |
| 2026-05-08 14:41 | 24.15716 | 58.41702 | 31714 ft | 510 kts | 288° |
| 2026-05-08 14:42 | 24.18089 | 58.34368 | 31713 ft | 510 kts | 288° |
| 2026-05-08 14:42 | 24.20399 | 58.27083 | 31709 ft | 510 kts | 288° |
| 2026-05-08 14:43 | 24.22704 | 58.19741 | 31713 ft | 510 kts | 288° |
| 2026-05-08 14:43 | 24.25006 | 58.12393 | 31713 ft | 509 kts | 288° |
| 2026-05-08 14:44 | 24.27303 | 58.05052 | 31712 ft | 509 kts | 288° |
| 2026-05-08 14:44 | 24.29596 | 57.97717 | 31714 ft | 509 kts | 288° |
| 2026-05-08 14:45 | 24.31883 | 57.90386 | 31720 ft | 508 kts | 287° |
| 2026-05-08 14:45 | 24.34167 | 57.83051 | 31711 ft | 508 kts | 287° |
| 2026-05-08 14:46 | 24.36441 | 57.75731 | 31714 ft | 507 kts | 287° |
| 2026-05-08 14:46 | 24.38712 | 57.68410 | 31718 ft | 507 kts | 287° |
| 2026-05-08 14:47 | 24.40976 | 57.61094 | 31721 ft | 506 kts | 287° |
| 2026-05-08 14:47 | 24.43227 | 57.53811 | 31718 ft | 506 kts | 287° |
| 2026-05-08 14:48 | 24.45476 | 57.46522 | 31627 ft | 506 kts | 287° |
| 2026-05-08 14:48 | 24.46607 | 57.42860 | 31336 ft | 505 kts | 287° |
| 2026-05-08 14:48 | 24.47731 | 57.39218 | 31000 ft | 501 kts | 287° |
| 2026-05-08 14:49 | 24.48843 | 57.35611 | 30674 ft | 497 kts | 287° |
| 2026-05-08 14:49 | 24.49930 | 57.32079 | 30349 ft | 493 kts | 287° |
| 2026-05-08 14:49 | 24.51039 | 57.28472 | 30025 ft | 490 kts | 287° |
| 2026-05-08 14:49 | 24.52111 | 57.24983 | 29641 ft | 489 kts | 287° |
| 2026-05-08 14:50 | 24.53200 | 57.21432 | 29007 ft | 491 kts | 287° |
| 2026-05-08 14:50 | 24.54285 | 57.17891 | 28453 ft | 488 kts | 287° |
| 2026-05-08 14:50 | 24.55361 | 57.14379 | 27875 ft | 482 kts | 287° |
| 2026-05-08 14:50 | 24.56424 | 57.10906 | 27303 ft | 476 kts | 287° |
| 2026-05-08 14:51 | 24.57476 | 57.07465 | 26726 ft | 472 kts | 287° |
| 2026-05-08 14:51 | 24.58511 | 57.04077 | 26150 ft | 470 kts | 287° |
| 2026-05-08 14:51 | 24.59546 | 57.00683 | 25583 ft | 467 kts | 287° |
| 2026-05-08 14:51 | 24.60575 | 56.97308 | 25036 ft | 464 kts | 287° |
| 2026-05-08 14:52 | 24.61597 | 56.93951 | 24502 ft | 462 kts | 287° |
| 2026-05-08 14:52 | 24.63621 | 56.87314 | 23459 ft | 458 kts | 288° |
| 2026-05-08 14:52 | 24.64771 | 56.84055 | 22869 ft | 458 kts | 292° |
| 2026-05-08 14:53 | 24.66103 | 56.80872 | 22251 ft | 456 kts | 294° |
| 2026-05-08 14:53 | 24.67450 | 56.77730 | 21638 ft | 454 kts | 294° |
| 2026-05-08 14:53 | 24.68800 | 56.74597 | 21030 ft | 453 kts | 294° |
| 2026-05-08 14:53 | 24.70138 | 56.71479 | 20447 ft | 449 kts | 294° |
| 2026-05-08 14:54 | 24.71459 | 56.68384 | 19855 ft | 445 kts | 294° |
| 2026-05-08 14:54 | 24.72764 | 56.65308 | 19271 ft | 441 kts | 294° |
| 2026-05-08 14:54 | 24.74049 | 56.62269 | 18723 ft | 437 kts | 294° |
| 2026-05-08 14:54 | 24.75325 | 56.59243 | 18174 ft | 434 kts | 294° |
| 2026-05-08 14:55 | 24.76585 | 56.56250 | 17559 ft | 430 kts | 294° |
| 2026-05-08 14:55 | 24.77838 | 56.53275 | 16952 ft | 427 kts | 294° |
| 2026-05-08 14:55 | 24.79074 | 56.50339 | 16426 ft | 423 kts | 294° |
| 2026-05-08 14:55 | 24.80294 | 56.47436 | 15899 ft | 420 kts | 294° |
| 2026-05-08 14:56 | 24.81518 | 56.44524 | 15361 ft | 418 kts | 294° |
| 2026-05-08 14:56 | 24.82736 | 56.41624 | 14883 ft | 414 kts | 294° |
| 2026-05-08 14:56 | 24.83938 | 56.38762 | 14427 ft | 411 kts | 294° |
| 2026-05-08 14:56 | 24.85114 | 56.35956 | 13979 ft | 408 kts | 294° |
| 2026-05-08 14:57 | 24.86298 | 56.33134 | 13526 ft | 405 kts | 294° |
| 2026-05-08 14:57 | 24.87470 | 56.30336 | 13307 ft | 395 kts | 294° |
| 2026-05-08 14:57 | 24.88567 | 56.27720 | 13102 ft | 362 kts | 294° |
| 2026-05-08 14:57 | 24.89591 | 56.25275 | 12626 ft | 341 kts | 294° |
| 2026-05-08 14:58 | 24.90246 | 56.23709 | 12313 ft | 341 kts | 294° |
| 2026-05-08 14:58 | 24.91234 | 56.21346 | 12101 ft | 337 kts | 294° |
| 2026-05-08 14:58 | 24.92196 | 56.19013 | 11886 ft | 332 kts | 292° |
| 2026-05-08 14:58 | 24.93020 | 56.16676 | 11646 ft | 328 kts | 289° |
| 2026-05-08 14:59 | 24.93774 | 56.14331 | 11372 ft | 326 kts | 288° |
| 2026-05-08 14:59 | 24.95250 | 56.09669 | 10719 ft | 327 kts | 288° |
| 2026-05-08 14:59 | 24.96004 | 56.07310 | 10490 ft | 324 kts | 288° |
| 2026-05-08 15:00 | 24.96757 | 56.04976 | 10267 ft | 321 kts | 289° |
| 2026-05-08 15:00 | 24.97495 | 56.02698 | 10211 ft | 311 kts | 288° |
| 2026-05-08 15:00 | 24.98212 | 56.00494 | 10159 ft | 300 kts | 289° |
| 2026-05-08 15:00 | 24.98886 | 55.98425 | 10048 ft | 274 kts | 289° |
| 2026-05-08 15:01 | 24.99520 | 55.96484 | 9916 ft | 268 kts | 288° |
| 2026-05-08 15:01 | 25.00154 | 55.94535 | 9617 ft | 272 kts | 288° |
| 2026-05-08 15:01 | 25.00798 | 55.92551 | 9295 ft | 278 kts | 289° |
| 2026-05-08 15:01 | 25.01452 | 55.90539 | 8958 ft | 280 kts | 289° |
| 2026-05-08 15:02 | 25.02109 | 55.88520 | 8638 ft | 279 kts | 289° |
| 2026-05-08 15:02 | 25.02763 | 55.86510 | 8302 ft | 278 kts | 290° |
| 2026-05-08 15:02 | 25.03414 | 55.84508 | 7952 ft | 279 kts | 290° |
| 2026-05-08 15:02 | 25.04072 | 55.82484 | 7584 ft | 280 kts | 291° |
| 2026-05-08 15:03 | 25.04730 | 55.80459 | 7219 ft | 282 kts | 291° |
| 2026-05-08 15:03 | 25.05383 | 55.78449 | 6830 ft | 284 kts | 291° |
| 2026-05-08 15:03 | 25.06053 | 55.76381 | 6388 ft | 288 kts | 292° |
| 2026-05-08 15:03 | 25.06735 | 55.74283 | 5925 ft | 292 kts | 292° |
| 2026-05-08 15:04 | 25.07405 | 55.72217 | 5379 ft | 281 kts | 291° |
| 2026-05-08 15:04 | 25.08051 | 55.70223 | 4839 ft | 270 kts | 290° |
| 2026-05-08 15:04 | 25.08669 | 55.68314 | 4322 ft | 260 kts | 291° |
| 2026-05-08 15:04 | 25.09259 | 55.66492 | 4090 ft | 241 kts | 290° |
| 2026-05-08 15:05 | 25.09807 | 55.64795 | 4075 ft | 228 kts | 291° |
| 2026-05-08 15:05 | 25.10352 | 55.63218 | 4019 ft | 211 kts | 298° |
| 2026-05-08 15:05 | 25.11068 | 55.61879 | 3993 ft | 196 kts | 303° |
| 2026-05-08 15:05 | 25.11838 | 55.60598 | 4067 ft | 201 kts | 304° |
| 2026-05-08 15:06 | 25.12597 | 55.59313 | 3840 ft | 203 kts | 302° |
| 2026-05-08 15:06 | 25.13340 | 55.58003 | 3596 ft | 199 kts | 302° |
| 2026-05-08 15:06 | 25.14056 | 55.56721 | 3356 ft | 196 kts | 301° |
| 2026-05-08 15:06 | 25.14759 | 55.55454 | 3124 ft | 191 kts | 301° |
| 2026-05-08 15:07 | 25.15440 | 55.54224 | 2876 ft | 183 kts | 301° |
| 2026-05-08 15:07 | 25.16073 | 55.53083 | 2677 ft | 167 kts | 300° |
| 2026-05-08 15:07 | 25.16671 | 55.52003 | 2463 ft | 163 kts | 300° |
| 2026-05-08 15:07 | 25.17263 | 55.50930 | 2263 ft | 166 kts | 300° |
| 2026-05-08 15:08 | 25.17867 | 55.49839 | 2065 ft | 168 kts | 301° |
| 2026-05-08 15:08 | 25.18276 | 55.49102 | 1939 ft | 172 kts | 301° |
| 2026-05-08 15:08 | 25.19075 | 55.47661 | 1637 ft | 158 kts | 301° |
| 2026-05-08 15:08 | 25.19617 | 55.46683 | 1420 ft | 149 kts | 300° |
| 2026-05-08 15:09 | 25.20174 | 55.45679 | 1269 ft | 150 kts | 300° |
| 2026-05-08 15:09 | 25.20683 | 55.44756 | 1072 ft | 141 kts | 300° |
| 2026-05-08 15:09 | 25.21185 | 55.43849 | 937 ft | 141 kts | 301° |
| 2026-05-08 15:09 | 25.21700 | 55.42916 | 764 ft | 144 kts | 299° |
| 2026-05-08 15:10 | 25.22191 | 55.41956 | 580 ft | 142 kts | 297° |
| 2026-05-08 15:10 | 25.22718 | 55.41051 | 381 ft | 137 kts | 301° |
| 2026-05-08 15:10 | 25.23212 | 55.40153 | 215 ft | 139 kts | 298° |
| 2026-05-08 15:10 | 25.23686 | 55.39320 | 85 ft | 142 kts | 301° |
| 2026-05-08 15:11 | 25.24025 | 55.38700 | 29 ft | 134 kts | 310° |
| 2026-05-08 15:11 | 25.24261 | 55.38255 | 31 ft | 43 kts | 288° |
| 2026-05-08 15:11 | 25.24367 | 55.38078 | 30 ft | 30 kts | 306° |
| 2026-05-08 15:11 | 25.24479 | 55.37884 | 29 ft | 27 kts | 302° |
| 2026-05-08 15:12 | 25.24508 | 55.37833 | 28 ft | 15 kts | 302° |
| 2026-05-08 15:12 | 25.24563 | 55.37719 | 27 ft | 22 kts | 293° |
| 2026-05-08 15:12 | 25.24599 | 55.37588 | 27 ft | 9 kts | 282° |
| 2026-05-08 15:12 | 25.24610 | 55.37524 | 27 ft | 9 kts | 278° |
| 2026-05-08 15:13 | 25.24613 | 55.37456 | 27 ft | 9 kts | 271° |
| 2026-05-08 15:13 | 25.24615 | 55.37387 | 27 ft | 9 kts | 271° |
| 2026-05-08 15:13 | 25.24616 | 55.37316 | 26 ft | 9 kts | 272° |
| 2026-05-08 15:13 | 25.24634 | 55.37247 | 26 ft | 10 kts | 295° |
| 2026-05-08 15:14 | 25.24667 | 55.37183 | 27 ft | 10 kts | 301° |
| 2026-05-08 15:14 | 25.24702 | 55.37121 | 27 ft | 10 kts | 302° |
| 2026-05-08 15:14 | 25.24738 | 55.37058 | 27 ft | 10 kts | 302° |
| 2026-05-08 15:14 | 25.24774 | 55.36996 | 27 ft | 10 kts | 302° |
| 2026-05-08 15:15 | 25.24806 | 55.36940 | 27 ft | 10 kts | 302° |
| 2026-05-08 15:15 | 25.24835 | 55.36875 | 27 ft | 10 kts | 292° |
| 2026-05-08 15:15 | 25.24856 | 55.36804 | 27 ft | 10 kts | 285° |
| 2026-05-08 15:15 | 25.24873 | 55.36733 | 26 ft | 10 kts | 287° |
| 2026-05-08 15:16 | 25.24896 | 55.36662 | 31 ft | 10 kts | 290° |
| 2026-05-08 15:16 | 25.24931 | 55.36594 | 31 ft | 10 kts | 302° |
| 2026-05-08 15:16 | 25.24952 | 55.36556 | 26 ft | 0 kts | 297° |
| 2026-05-08 15:16 | 25.24957 | 55.36545 | 26 ft | 5 kts | 297° |
| 2026-05-08 15:17 | 25.24970 | 55.36507 | 26 ft | 6 kts | 287° |
| 2026-05-08 15:17 | 25.24979 | 55.36465 | 26 ft | 6 kts | 278° |
| 2026-05-08 15:17 | 25.24982 | 55.36420 | 30 ft | 6 kts | 270° |
| 2026-05-08 15:17 | 25.24972 | 55.36376 | 32 ft | 6 kts | 243° |
| 2026-05-08 15:18 | 25.24941 | 55.36342 | 29 ft | 7 kts | 219° |
| 2026-05-08 15:18 | 25.24924 | 55.36327 | 30 ft | 1 kts | 215° |
| 2026-05-08 15:18 | 25.24915 | 55.36321 | 30 ft | 2 kts | 215° |
| 2026-05-08 15:18 | 25.24902 | 55.36311 | 29 ft | 3 kts | 214° |
| 2026-05-08 15:19 | 25.24888 | 55.36301 | 29 ft | 3 kts | 213° |
| 2026-05-08 15:19 | 25.24880 | 55.36295 | 30 ft | 0 kts | 213° |